sensor_id;sensor_type;location;lat;lon;timestamp;temperature;humidity
758;DHT22;363;48.764;9.172;2023-09-30T00:00:25;18.60;99.90
758;DHT22;363;48.764;9.172;2023-09-30T00:02:51;18.40;99.90
758;DHT22;363;48.764;9.172;2023-09-30T00:05:16;18.50;99.90
758;DHT22;363;48.764;9.172;2023-09-30T00:07:47;18.20;99.90
758;DHT22;363;48.764;9.172;2023-09-30T00:10:13;18.70;99.90
758;DHT22;363;48.764;9.172;2023-09-30T00:12:40;18.30;99.90
758;DHT22;363;48.764;9.172;2023-09-30T00:15:05;18.70;99.90
758;DHT22;363;48.764;9.172;2023-09-30T00:17:31;18.40;99.90
758;DHT22;363;48.764;9.172;2023-09-30T00:19:56;18.60;99.90
758;DHT22;363;48.764;9.172;2023-09-30T00:22:22;18.70;99.90
758;DHT22;363;48.764;9.172;2023-09-30T00:24:48;18.30;99.90
758;DHT22;363;48.764;9.172;2023-09-30T00:27:13;18.30;99.90
758;DHT22;363;48.764;9.172;2023-09-30T00:29:39;18.60;99.90
758;DHT22;363;48.764;9.172;2023-09-30T00:32:05;18.40;99.90
758;DHT22;363;48.764;9.172;2023-09-30T00:34:34;18.50;99.90
758;DHT22;363;48.764;9.172;2023-09-30T00:37:00;18.10;99.90
758;DHT22;363;48.764;9.172;2023-09-30T00:39:26;18.40;99.90
758;DHT22;363;48.764;9.172;2023-09-30T00:41:56;18.30;99.90
758;DHT22;363;48.764;9.172;2023-09-30T00:44:21;18.30;99.90
758;DHT22;363;48.764;9.172;2023-09-30T00:46:47;17.90;99.90
758;DHT22;363;48.764;9.172;2023-09-30T00:49:14;17.90;99.90
758;DHT22;363;48.764;9.172;2023-09-30T00:51:39;18.30;99.90
758;DHT22;363;48.764;9.172;2023-09-30T00:54:05;18.10;99.90
758;DHT22;363;48.764;9.172;2023-09-30T00:56:32;17.90;99.90
758;DHT22;363;48.764;9.172;2023-09-30T00:58:59;18.00;99.90
758;DHT22;363;48.764;9.172;2023-09-30T01:01:24;17.80;99.90
758;DHT22;363;48.764;9.172;2023-09-30T01:03:50;18.30;99.90
758;DHT22;363;48.764;9.172;2023-09-30T01:06:16;18.30;99.90
758;DHT22;363;48.764;9.172;2023-09-30T01:08:42;18.50;99.90
758;DHT22;363;48.764;9.172;2023-09-30T01:11:08;18.20;99.90
758;DHT22;363;48.764;9.172;2023-09-30T01:13:37;18.60;99.90
758;DHT22;363;48.764;9.172;2023-09-30T01:16:08;18.50;99.90
758;DHT22;363;48.764;9.172;2023-09-30T01:18:35;18.60;99.90
758;DHT22;363;48.764;9.172;2023-09-30T01:21:03;18.50;99.90
758;DHT22;363;48.764;9.172;2023-09-30T01:23:31;18.80;99.90
758;DHT22;363;48.764;9.172;2023-09-30T01:25:56;18.20;99.90
758;DHT22;363;48.764;9.172;2023-09-30T01:28:22;18.50;99.90
758;DHT22;363;48.764;9.172;2023-09-30T01:30:48;18.50;99.90
758;DHT22;363;48.764;9.172;2023-09-30T01:33:14;18.70;99.90
758;DHT22;363;48.764;9.172;2023-09-30T01:35:42;18.60;99.90
758;DHT22;363;48.764;9.172;2023-09-30T01:38:07;18.50;99.90
758;DHT22;363;48.764;9.172;2023-09-30T01:40:32;18.70;99.90
758;DHT22;363;48.764;9.172;2023-09-30T01:42:58;18.70;99.90
758;DHT22;363;48.764;9.172;2023-09-30T01:45:24;18.60;99.90
758;DHT22;363;48.764;9.172;2023-09-30T01:47:49;18.40;99.90
758;DHT22;363;48.764;9.172;2023-09-30T01:50:15;18.50;99.90
758;DHT22;363;48.764;9.172;2023-09-30T01:52:40;18.50;99.90
758;DHT22;363;48.764;9.172;2023-09-30T01:55:06;18.50;99.90
758;DHT22;363;48.764;9.172;2023-09-30T01:57:31;18.30;99.90
758;DHT22;363;48.764;9.172;2023-09-30T01:59:57;18.60;99.90
758;DHT22;363;48.764;9.172;2023-09-30T02:02:23;18.20;99.90
758;DHT22;363;48.764;9.172;2023-09-30T02:04:48;18.50;99.90
758;DHT22;363;48.764;9.172;2023-09-30T02:07:14;18.60;99.90
758;DHT22;363;48.764;9.172;2023-09-30T02:09:39;18.40;99.90
758;DHT22;363;48.764;9.172;2023-09-30T02:12:05;18.10;99.90
758;DHT22;363;48.764;9.172;2023-09-30T02:14:33;18.10;99.90
758;DHT22;363;48.764;9.172;2023-09-30T02:16:58;18.50;99.90
758;DHT22;363;48.764;9.172;2023-09-30T02:19:24;18.20;99.90
758;DHT22;363;48.764;9.172;2023-09-30T02:21:50;18.10;99.90
758;DHT22;363;48.764;9.172;2023-09-30T02:24:15;18.10;99.90
758;DHT22;363;48.764;9.172;2023-09-30T02:26:41;17.70;99.90
758;DHT22;363;48.764;9.172;2023-09-30T02:29:06;17.80;99.90
758;DHT22;363;48.764;9.172;2023-09-30T02:31:35;17.80;99.90
758;DHT22;363;48.764;9.172;2023-09-30T02:34:00;17.30;99.90
758;DHT22;363;48.764;9.172;2023-09-30T02:36:29;17.70;99.90
758;DHT22;363;48.764;9.172;2023-09-30T02:38:54;17.10;99.90
758;DHT22;363;48.764;9.172;2023-09-30T02:41:20;17.60;99.90
758;DHT22;363;48.764;9.172;2023-09-30T02:43:45;17.30;99.90
758;DHT22;363;48.764;9.172;2023-09-30T02:46:11;17.40;99.90
758;DHT22;363;48.764;9.172;2023-09-30T02:48:37;17.50;99.90
758;DHT22;363;48.764;9.172;2023-09-30T02:51:03;17.30;99.90
758;DHT22;363;48.764;9.172;2023-09-30T02:53:29;16.90;99.90
758;DHT22;363;48.764;9.172;2023-09-30T02:55:55;17.20;99.90
758;DHT22;363;48.764;9.172;2023-09-30T02:58:23;17.20;99.90
758;DHT22;363;48.764;9.172;2023-09-30T03:00:49;17.40;99.90
758;DHT22;363;48.764;9.172;2023-09-30T03:03:15;17.30;99.90
758;DHT22;363;48.764;9.172;2023-09-30T03:05:40;17.20;99.90
758;DHT22;363;48.764;9.172;2023-09-30T03:08:06;17.00;99.90
758;DHT22;363;48.764;9.172;2023-09-30T03:10:32;17.30;99.90
758;DHT22;363;48.764;9.172;2023-09-30T03:12:57;17.70;99.90
758;DHT22;363;48.764;9.172;2023-09-30T03:15:27;17.50;99.90
758;DHT22;363;48.764;9.172;2023-09-30T03:17:54;17.60;99.90
758;DHT22;363;48.764;9.172;2023-09-30T03:20:21;17.60;99.90
758;DHT22;363;48.764;9.172;2023-09-30T03:22:47;17.50;99.90
758;DHT22;363;48.764;9.172;2023-09-30T03:25:13;17.30;99.90
758;DHT22;363;48.764;9.172;2023-09-30T03:27:41;16.90;99.90
758;DHT22;363;48.764;9.172;2023-09-30T03:30:08;16.90;99.90
758;DHT22;363;48.764;9.172;2023-09-30T03:32:34;17.10;99.90
758;DHT22;363;48.764;9.172;2023-09-30T03:35:02;17.40;99.90
758;DHT22;363;48.764;9.172;2023-09-30T03:37:27;17.00;99.90
758;DHT22;363;48.764;9.172;2023-09-30T03:39:56;17.20;99.90
758;DHT22;363;48.764;9.172;2023-09-30T03:42:22;16.70;99.90
758;DHT22;363;48.764;9.172;2023-09-30T03:44:48;16.90;99.90
758;DHT22;363;48.764;9.172;2023-09-30T03:47:17;16.90;99.90
758;DHT22;363;48.764;9.172;2023-09-30T03:49:42;17.20;99.90
758;DHT22;363;48.764;9.172;2023-09-30T03:52:11;17.10;99.90
758;DHT22;363;48.764;9.172;2023-09-30T03:54:37;17.20;99.90
758;DHT22;363;48.764;9.172;2023-09-30T03:57:03;17.30;99.90
758;DHT22;363;48.764;9.172;2023-09-30T03:59:29;16.90;99.90
758;DHT22;363;48.764;9.172;2023-09-30T04:22:31;17.60;99.90
758;DHT22;363;48.764;9.172;2023-09-30T04:24:58;17.20;99.90
758;DHT22;363;48.764;9.172;2023-09-30T04:27:23;17.00;99.90
758;DHT22;363;48.764;9.172;2023-09-30T04:29:49;17.00;99.90
758;DHT22;363;48.764;9.172;2023-09-30T04:32:15;17.30;99.90
758;DHT22;363;48.764;9.172;2023-09-30T04:34:41;17.40;99.90
758;DHT22;363;48.764;9.172;2023-09-30T04:37:06;17.10;99.90
758;DHT22;363;48.764;9.172;2023-09-30T04:39:34;17.20;99.90
758;DHT22;363;48.764;9.172;2023-09-30T04:42:01;17.30;99.90
758;DHT22;363;48.764;9.172;2023-09-30T04:44:26;17.50;99.90
758;DHT22;363;48.764;9.172;2023-09-30T04:46:56;17.70;99.90
758;DHT22;363;48.764;9.172;2023-09-30T04:49:22;17.50;99.90
758;DHT22;363;48.764;9.172;2023-09-30T04:51:49;17.40;99.90
758;DHT22;363;48.764;9.172;2023-09-30T04:54:23;17.40;99.90
758;DHT22;363;48.764;9.172;2023-09-30T04:56:48;16.90;99.90
758;DHT22;363;48.764;9.172;2023-09-30T04:59:16;17.30;99.90
758;DHT22;363;48.764;9.172;2023-09-30T05:01:42;17.50;99.90
758;DHT22;363;48.764;9.172;2023-09-30T05:04:07;17.40;99.90
758;DHT22;363;48.764;9.172;2023-09-30T05:06:33;17.00;99.90
758;DHT22;363;48.764;9.172;2023-09-30T05:08:59;16.50;99.90
758;DHT22;363;48.764;9.172;2023-09-30T05:11:25;17.20;99.90
758;DHT22;363;48.764;9.172;2023-09-30T05:13:50;17.20;99.90
758;DHT22;363;48.764;9.172;2023-09-30T05:16:17;16.90;99.90
758;DHT22;363;48.764;9.172;2023-09-30T05:18:42;17.40;99.90
758;DHT22;363;48.764;9.172;2023-09-30T05:21:08;17.50;99.90
758;DHT22;363;48.764;9.172;2023-09-30T05:23:34;17.40;99.90
758;DHT22;363;48.764;9.172;2023-09-30T05:25:59;17.60;99.90
758;DHT22;363;48.764;9.172;2023-09-30T05:28:25;17.60;99.90
758;DHT22;363;48.764;9.172;2023-09-30T05:30:52;17.20;99.90
758;DHT22;363;48.764;9.172;2023-09-30T05:33:18;17.10;99.90
758;DHT22;363;48.764;9.172;2023-09-30T05:35:44;17.40;99.90
758;DHT22;363;48.764;9.172;2023-09-30T05:38:09;17.00;99.90
758;DHT22;363;48.764;9.172;2023-09-30T05:40:38;17.10;99.90
758;DHT22;363;48.764;9.172;2023-09-30T05:43:04;17.70;99.90
758;DHT22;363;48.764;9.172;2023-09-30T05:45:31;17.80;99.90
758;DHT22;363;48.764;9.172;2023-09-30T05:48:01;17.40;99.90
758;DHT22;363;48.764;9.172;2023-09-30T05:50:30;17.40;99.90
758;DHT22;363;48.764;9.172;2023-09-30T05:52:57;17.50;99.90
758;DHT22;363;48.764;9.172;2023-09-30T05:55:23;17.20;99.90
758;DHT22;363;48.764;9.172;2023-09-30T05:57:50;17.40;99.90
758;DHT22;363;48.764;9.172;2023-09-30T06:00:18;17.80;99.90
758;DHT22;363;48.764;9.172;2023-09-30T06:02:48;17.30;99.90
758;DHT22;363;48.764;9.172;2023-09-30T06:05:14;17.70;99.90
758;DHT22;363;48.764;9.172;2023-09-30T06:07:44;17.90;99.90
758;DHT22;363;48.764;9.172;2023-09-30T06:10:11;17.70;99.90
758;DHT22;363;48.764;9.172;2023-09-30T06:12:36;17.30;99.90
758;DHT22;363;48.764;9.172;2023-09-30T06:15:02;17.10;99.90
758;DHT22;363;48.764;9.172;2023-09-30T06:17:31;17.30;99.90
758;DHT22;363;48.764;9.172;2023-09-30T06:19:58;17.10;99.90
758;DHT22;363;48.764;9.172;2023-09-30T06:22:32;17.40;99.90
758;DHT22;363;48.764;9.172;2023-09-30T06:24:58;17.20;99.90
758;DHT22;363;48.764;9.172;2023-09-30T06:27:23;17.10;99.90
758;DHT22;363;48.764;9.172;2023-09-30T06:29:49;17.50;99.90
758;DHT22;363;48.764;9.172;2023-09-30T06:32:14;17.70;99.90
758;DHT22;363;48.764;9.172;2023-09-30T06:34:40;17.60;99.90
758;DHT22;363;48.764;9.172;2023-09-30T06:37:06;17.60;99.90
758;DHT22;363;48.764;9.172;2023-09-30T06:39:32;18.10;99.90
758;DHT22;363;48.764;9.172;2023-09-30T06:41:57;18.10;99.90
758;DHT22;363;48.764;9.172;2023-09-30T06:44:23;18.20;99.90
758;DHT22;363;48.764;9.172;2023-09-30T06:46:50;18.00;99.90
758;DHT22;363;48.764;9.172;2023-09-30T06:49:16;18.00;99.90
758;DHT22;363;48.764;9.172;2023-09-30T06:51:42;18.20;99.90
758;DHT22;363;48.764;9.172;2023-09-30T06:54:07;18.30;99.90
758;DHT22;363;48.764;9.172;2023-09-30T06:56:33;18.30;99.90
758;DHT22;363;48.764;9.172;2023-09-30T06:58:58;18.30;99.90
758;DHT22;363;48.764;9.172;2023-09-30T07:01:25;18.00;99.90
758;DHT22;363;48.764;9.172;2023-09-30T07:03:50;18.30;99.90
758;DHT22;363;48.764;9.172;2023-09-30T07:06:25;18.30;99.90
758;DHT22;363;48.764;9.172;2023-09-30T07:08:52;18.30;99.90
758;DHT22;363;48.764;9.172;2023-09-30T07:11:27;18.50;99.90
758;DHT22;363;48.764;9.172;2023-09-30T07:13:53;18.70;99.90
758;DHT22;363;48.764;9.172;2023-09-30T07:16:19;18.80;99.90
758;DHT22;363;48.764;9.172;2023-09-30T07:18:44;19.10;99.90
758;DHT22;363;48.764;9.172;2023-09-30T07:21:10;19.30;99.90
758;DHT22;363;48.764;9.172;2023-09-30T07:23:35;19.20;99.90
758;DHT22;363;48.764;9.172;2023-09-30T07:26:01;19.10;99.90
758;DHT22;363;48.764;9.172;2023-09-30T07:28:26;19.00;99.90
758;DHT22;363;48.764;9.172;2023-09-30T07:30:52;18.80;99.90
758;DHT22;363;48.764;9.172;2023-09-30T07:33:17;18.80;99.90
758;DHT22;363;48.764;9.172;2023-09-30T07:35:43;18.90;99.90
758;DHT22;363;48.764;9.172;2023-09-30T07:38:08;19.10;99.90
758;DHT22;363;48.764;9.172;2023-09-30T07:40:34;19.30;99.90
758;DHT22;363;48.764;9.172;2023-09-30T07:43:00;19.40;99.90
758;DHT22;363;48.764;9.172;2023-09-30T07:45:25;19.10;99.90
758;DHT22;363;48.764;9.172;2023-09-30T07:47:51;19.20;99.90
758;DHT22;363;48.764;9.172;2023-09-30T07:50:16;19.80;99.90
758;DHT22;363;48.764;9.172;2023-09-30T07:52:43;20.00;99.90
758;DHT22;363;48.764;9.172;2023-09-30T07:58:31;20.10;99.90
758;DHT22;363;48.764;9.172;2023-09-30T08:00:57;20.30;99.90
758;DHT22;363;48.764;9.172;2023-09-30T08:03:22;20.30;99.90
758;DHT22;363;48.764;9.172;2023-09-30T08:05:48;20.30;99.90
758;DHT22;363;48.764;9.172;2023-09-30T08:08:14;19.60;99.90
758;DHT22;363;48.764;9.172;2023-09-30T08:10:39;19.50;99.90
758;DHT22;363;48.764;9.172;2023-09-30T08:13:05;19.70;99.90
758;DHT22;363;48.764;9.172;2023-09-30T08:15:31;19.80;99.90
758;DHT22;363;48.764;9.172;2023-09-30T08:17:56;20.30;99.90
758;DHT22;363;48.764;9.172;2023-09-30T08:20:22;20.20;99.90
758;DHT22;363;48.764;9.172;2023-09-30T08:22:47;20.50;99.90
758;DHT22;363;48.764;9.172;2023-09-30T08:25:13;20.30;99.90
758;DHT22;363;48.764;9.172;2023-09-30T08:27:39;20.60;99.90
758;DHT22;363;48.764;9.172;2023-09-30T08:30:05;21.10;99.90
758;DHT22;363;48.764;9.172;2023-09-30T08:32:37;20.60;99.90
758;DHT22;363;48.764;9.172;2023-09-30T08:35:03;20.60;99.90
758;DHT22;363;48.764;9.172;2023-09-30T08:37:29;20.40;99.90
758;DHT22;363;48.764;9.172;2023-09-30T08:39:55;20.40;99.90
758;DHT22;363;48.764;9.172;2023-09-30T08:42:22;20.90;99.90
758;DHT22;363;48.764;9.172;2023-09-30T08:44:52;20.70;99.90
758;DHT22;363;48.764;9.172;2023-09-30T08:47:18;20.20;99.90
758;DHT22;363;48.764;9.172;2023-09-30T08:49:46;20.10;99.90
758;DHT22;363;48.764;9.172;2023-09-30T08:52:14;20.50;99.90
758;DHT22;363;48.764;9.172;2023-09-30T08:54:40;20.70;99.90
758;DHT22;363;48.764;9.172;2023-09-30T08:57:08;20.70;99.90
758;DHT22;363;48.764;9.172;2023-09-30T08:59:35;20.90;99.90
758;DHT22;363;48.764;9.172;2023-09-30T09:02:08;21.20;99.90
758;DHT22;363;48.764;9.172;2023-09-30T09:04:35;21.10;99.90
758;DHT22;363;48.764;9.172;2023-09-30T09:07:01;21.10;99.90
758;DHT22;363;48.764;9.172;2023-09-30T09:09:27;21.20;99.90
758;DHT22;363;48.764;9.172;2023-09-30T09:11:52;21.10;99.90
758;DHT22;363;48.764;9.172;2023-09-30T09:14:18;20.90;99.90
758;DHT22;363;48.764;9.172;2023-09-30T09:16:56;21.30;99.90
758;DHT22;363;48.764;9.172;2023-09-30T09:19:22;20.80;99.80
758;DHT22;363;48.764;9.172;2023-09-30T09:21:59;21.10;99.70
758;DHT22;363;48.764;9.172;2023-09-30T09:27:04;21.10;99.00
758;DHT22;363;48.764;9.172;2023-09-30T09:29:30;21.30;98.60
758;DHT22;363;48.764;9.172;2023-09-30T09:32:13;21.70;98.40
758;DHT22;363;48.764;9.172;2023-09-30T09:34:40;21.70;97.80
758;DHT22;363;48.764;9.172;2023-09-30T09:37:19;22.00;97.50
758;DHT22;363;48.764;9.172;2023-09-30T09:39:55;21.60;97.30
758;DHT22;363;48.764;9.172;2023-09-30T09:42:30;21.80;97.50
758;DHT22;363;48.764;9.172;2023-09-30T09:45:05;21.90;98.10
758;DHT22;363;48.764;9.172;2023-09-30T09:47:34;21.10;97.90
758;DHT22;363;48.764;9.172;2023-09-30T09:50:03;21.00;98.20
758;DHT22;363;48.764;9.172;2023-09-30T09:52:29;20.90;98.60
758;DHT22;363;48.764;9.172;2023-09-30T09:54:57;21.10;99.00
758;DHT22;363;48.764;9.172;2023-09-30T09:57:24;20.60;99.00
758;DHT22;363;48.764;9.172;2023-09-30T09:59:52;20.90;98.90
758;DHT22;363;48.764;9.172;2023-09-30T10:02:19;21.70;98.30
758;DHT22;363;48.764;9.172;2023-09-30T10:04:45;22.00;97.50
758;DHT22;363;48.764;9.172;2023-09-30T10:07:27;21.90;96.80
758;DHT22;363;48.764;9.172;2023-09-30T10:09:55;22.10;96.40
758;DHT22;363;48.764;9.172;2023-09-30T10:12:25;22.20;95.40
758;DHT22;363;48.764;9.172;2023-09-30T10:14:52;22.30;95.40
758;DHT22;363;48.764;9.172;2023-09-30T10:17:17;22.40;95.30
758;DHT22;363;48.764;9.172;2023-09-30T10:20:05;22.30;95.20
758;DHT22;363;48.764;9.172;2023-09-30T10:22:32;21.90;95.00
758;DHT22;363;48.764;9.172;2023-09-30T10:24:58;22.60;95.40
758;DHT22;363;48.764;9.172;2023-09-30T10:27:31;22.70;94.70
758;DHT22;363;48.764;9.172;2023-09-30T10:29:57;22.50;94.30
758;DHT22;363;48.764;9.172;2023-09-30T10:37:51;22.00;94.70
758;DHT22;363;48.764;9.172;2023-09-30T10:40:37;21.80;94.90
758;DHT22;363;48.764;9.172;2023-09-30T10:43:02;22.30;94.40
758;DHT22;363;48.764;9.172;2023-09-30T10:50:57;22.50;93.30
758;DHT22;363;48.764;9.172;2023-09-30T10:53:27;22.90;93.20
758;DHT22;363;48.764;9.172;2023-09-30T10:55:57;23.40;92.10
758;DHT22;363;48.764;9.172;2023-09-30T10:58:39;23.80;91.30
758;DHT22;363;48.764;9.172;2023-09-30T11:01:05;24.20;90.70
758;DHT22;363;48.764;9.172;2023-09-30T11:03:30;23.90;90.90
758;DHT22;363;48.764;9.172;2023-09-30T11:05:56;23.40;91.70
758;DHT22;363;48.764;9.172;2023-09-30T11:08:22;22.80;91.80
758;DHT22;363;48.764;9.172;2023-09-30T11:10:50;23.00;92.10
758;DHT22;363;48.764;9.172;2023-09-30T11:13:20;22.70;92.00
758;DHT22;363;48.764;9.172;2023-09-30T11:15:46;22.50;92.30
758;DHT22;363;48.764;9.172;2023-09-30T11:18:16;22.90;92.40
758;DHT22;363;48.764;9.172;2023-09-30T11:20:43;22.80;91.60
758;DHT22;363;48.764;9.172;2023-09-30T11:23:10;22.80;91.50
758;DHT22;363;48.764;9.172;2023-09-30T11:25:37;23.20;91.90
758;DHT22;363;48.764;9.172;2023-09-30T11:28:18;23.60;91.90
758;DHT22;363;48.764;9.172;2023-09-30T11:31:00;23.10;91.40
758;DHT22;363;48.764;9.172;2023-09-30T11:33:31;23.00;90.60
758;DHT22;363;48.764;9.172;2023-09-30T11:36:02;22.60;90.70
758;DHT22;363;48.764;9.172;2023-09-30T11:38:28;22.70;91.00
758;DHT22;363;48.764;9.172;2023-09-30T11:41:01;22.60;91.00
758;DHT22;363;48.764;9.172;2023-09-30T11:43:32;22.50;91.50
758;DHT22;363;48.764;9.172;2023-09-30T11:46:12;22.40;91.10
758;DHT22;363;48.764;9.172;2023-09-30T11:48:56;22.70;91.60
758;DHT22;363;48.764;9.172;2023-09-30T11:51:22;22.40;91.50
758;DHT22;363;48.764;9.172;2023-09-30T11:53:52;22.70;90.50
758;DHT22;363;48.764;9.172;2023-09-30T11:56:19;22.50;88.30
758;DHT22;363;48.764;9.172;2023-09-30T11:58:44;23.10;88.80
758;DHT22;363;48.764;9.172;2023-09-30T12:01:11;22.60;88.00
758;DHT22;363;48.764;9.172;2023-09-30T12:03:39;23.20;87.20
758;DHT22;363;48.764;9.172;2023-09-30T12:06:06;23.10;87.50
758;DHT22;363;48.764;9.172;2023-09-30T12:08:31;23.10;87.00
758;DHT22;363;48.764;9.172;2023-09-30T12:10:57;23.80;88.80
758;DHT22;363;48.764;9.172;2023-09-30T12:13:25;23.30;85.10
758;DHT22;363;48.764;9.172;2023-09-30T12:15:50;23.10;84.70
758;DHT22;363;48.764;9.172;2023-09-30T12:18:18;23.70;84.90
758;DHT22;363;48.764;9.172;2023-09-30T12:20:49;23.30;86.40
758;DHT22;363;48.764;9.172;2023-09-30T12:23:14;23.90;85.80
758;DHT22;363;48.764;9.172;2023-09-30T12:25:40;24.10;84.00
758;DHT22;363;48.764;9.172;2023-09-30T12:28:05;23.60;83.40
758;DHT22;363;48.764;9.172;2023-09-30T12:30:31;23.80;83.40
758;DHT22;363;48.764;9.172;2023-09-30T12:32:57;23.90;82.80
758;DHT22;363;48.764;9.172;2023-09-30T12:35:23;24.00;82.30
758;DHT22;363;48.764;9.172;2023-09-30T12:37:49;23.50;83.10
758;DHT22;363;48.764;9.172;2023-09-30T12:40:14;23.50;81.70
758;DHT22;363;48.764;9.172;2023-09-30T12:42:42;23.40;81.10
758;DHT22;363;48.764;9.172;2023-09-30T12:45:08;23.80;81.30
758;DHT22;363;48.764;9.172;2023-09-30T12:47:34;23.50;79.70
758;DHT22;363;48.764;9.172;2023-09-30T12:50:00;23.40;79.90
758;DHT22;363;48.764;9.172;2023-09-30T12:52:25;23.80;80.30
758;DHT22;363;48.764;9.172;2023-09-30T12:54:51;23.50;82.90
758;DHT22;363;48.764;9.172;2023-09-30T12:57:16;23.50;86.10
758;DHT22;363;48.764;9.172;2023-09-30T12:59:44;22.90;86.40
758;DHT22;363;48.764;9.172;2023-09-30T13:02:12;22.80;87.60
758;DHT22;363;48.764;9.172;2023-09-30T13:04:37;23.00;87.30
758;DHT22;363;48.764;9.172;2023-09-30T13:07:11;23.20;86.50
758;DHT22;363;48.764;9.172;2023-09-30T13:09:38;23.10;86.70
758;DHT22;363;48.764;9.172;2023-09-30T13:12:05;22.80;90.20
758;DHT22;363;48.764;9.172;2023-09-30T13:14:30;22.70;86.60
758;DHT22;363;48.764;9.172;2023-09-30T13:16:56;22.90;85.60
758;DHT22;363;48.764;9.172;2023-09-30T13:19:22;23.00;87.10
758;DHT22;363;48.764;9.172;2023-09-30T13:21:51;23.10;86.80
758;DHT22;363;48.764;9.172;2023-09-30T13:24:19;23.10;84.70
758;DHT22;363;48.764;9.172;2023-09-30T13:26:45;23.50;85.10
758;DHT22;363;48.764;9.172;2023-09-30T13:29:11;23.20;85.50
758;DHT22;363;48.764;9.172;2023-09-30T13:31:37;23.80;86.40
758;DHT22;363;48.764;9.172;2023-09-30T13:34:06;22.80;85.30
758;DHT22;363;48.764;9.172;2023-09-30T13:36:32;22.70;84.60
758;DHT22;363;48.764;9.172;2023-09-30T13:38:58;22.60;85.50
758;DHT22;363;48.764;9.172;2023-09-30T13:41:23;22.50;84.40
758;DHT22;363;48.764;9.172;2023-09-30T13:43:49;22.50;84.90
758;DHT22;363;48.764;9.172;2023-09-30T13:46:14;22.50;86.00
758;DHT22;363;48.764;9.172;2023-09-30T13:48:41;22.60;87.30
758;DHT22;363;48.764;9.172;2023-09-30T13:51:07;23.10;89.50
758;DHT22;363;48.764;9.172;2023-09-30T13:53:34;22.40;88.60
758;DHT22;363;48.764;9.172;2023-09-30T13:55:59;22.80;90.10
758;DHT22;363;48.764;9.172;2023-09-30T13:58:25;22.70;90.00
758;DHT22;363;48.764;9.172;2023-09-30T14:00:51;23.20;89.90
758;DHT22;363;48.764;9.172;2023-09-30T14:03:20;22.90;89.40
758;DHT22;363;48.764;9.172;2023-09-30T14:05:46;22.50;88.20
758;DHT22;363;48.764;9.172;2023-09-30T14:08:12;22.50;90.00
758;DHT22;363;48.764;9.172;2023-09-30T14:10:38;22.90;90.10
758;DHT22;363;48.764;9.172;2023-09-30T14:13:04;22.70;88.80
758;DHT22;363;48.764;9.172;2023-09-30T14:15:30;22.70;87.70
758;DHT22;363;48.764;9.172;2023-09-30T14:17:57;23.20;89.40
758;DHT22;363;48.764;9.172;2023-09-30T14:20:23;22.90;88.20
758;DHT22;363;48.764;9.172;2023-09-30T14:22:50;23.00;88.80
758;DHT22;363;48.764;9.172;2023-09-30T14:25:17;23.10;88.40
758;DHT22;363;48.764;9.172;2023-09-30T14:27:42;23.00;87.90
758;DHT22;363;48.764;9.172;2023-09-30T14:30:08;23.00;88.90
758;DHT22;363;48.764;9.172;2023-09-30T14:32:34;22.40;87.50
758;DHT22;363;48.764;9.172;2023-09-30T14:35:00;22.80;88.00
758;DHT22;363;48.764;9.172;2023-09-30T14:37:25;22.60;88.10
758;DHT22;363;48.764;9.172;2023-09-30T14:39:51;22.20;88.50
758;DHT22;363;48.764;9.172;2023-09-30T14:42:16;22.10;89.70
758;DHT22;363;48.764;9.172;2023-09-30T14:44:42;22.50;90.00
758;DHT22;363;48.764;9.172;2023-09-30T14:47:08;21.90;86.90
758;DHT22;363;48.764;9.172;2023-09-30T14:49:34;22.30;89.20
758;DHT22;363;48.764;9.172;2023-09-30T14:52:00;22.00;89.00
758;DHT22;363;48.764;9.172;2023-09-30T14:54:25;22.30;89.60
758;DHT22;363;48.764;9.172;2023-09-30T14:56:51;22.40;89.70
758;DHT22;363;48.764;9.172;2023-09-30T14:59:16;22.30;89.60
758;DHT22;363;48.764;9.172;2023-09-30T15:01:42;22.20;89.50
758;DHT22;363;48.764;9.172;2023-09-30T15:04:08;22.50;90.20
758;DHT22;363;48.764;9.172;2023-09-30T15:06:35;22.50;90.30
758;DHT22;363;48.764;9.172;2023-09-30T15:09:03;22.70;90.00
758;DHT22;363;48.764;9.172;2023-09-30T15:11:29;22.00;88.80
758;DHT22;363;48.764;9.172;2023-09-30T15:13:55;22.30;89.00
758;DHT22;363;48.764;9.172;2023-09-30T15:16:22;22.50;90.30
758;DHT22;363;48.764;9.172;2023-09-30T15:18:49;21.80;89.90
758;DHT22;363;48.764;9.172;2023-09-30T15:21:15;22.20;90.20
758;DHT22;363;48.764;9.172;2023-09-30T15:23:41;22.00;90.30
758;DHT22;363;48.764;9.172;2023-09-30T15:26:07;21.70;90.00
758;DHT22;363;48.764;9.172;2023-09-30T15:28:33;21.60;89.50
758;DHT22;363;48.764;9.172;2023-09-30T15:30:59;22.50;90.40
758;DHT22;363;48.764;9.172;2023-09-30T15:33:27;21.80;90.00
758;DHT22;363;48.764;9.172;2023-09-30T15:35:53;21.80;90.10
758;DHT22;363;48.764;9.172;2023-09-30T15:38:18;22.20;90.60
758;DHT22;363;48.764;9.172;2023-09-30T15:40:55;21.60;90.30
758;DHT22;363;48.764;9.172;2023-09-30T15:43:24;21.60;90.20
758;DHT22;363;48.764;9.172;2023-09-30T15:45:50;22.00;89.80
758;DHT22;363;48.764;9.172;2023-09-30T15:48:16;21.50;89.00
758;DHT22;363;48.764;9.172;2023-09-30T15:50:42;21.40;89.70
758;DHT22;363;48.764;9.172;2023-09-30T15:53:08;21.90;90.40
758;DHT22;363;48.764;9.172;2023-09-30T15:55:33;21.70;90.00
758;DHT22;363;48.764;9.172;2023-09-30T15:57:59;21.70;89.60
758;DHT22;363;48.764;9.172;2023-09-30T16:00:24;21.40;89.60
758;DHT22;363;48.764;9.172;2023-09-30T16:02:51;21.30;90.30
758;DHT22;363;48.764;9.172;2023-09-30T16:05:16;21.70;90.40
758;DHT22;363;48.764;9.172;2023-09-30T16:07:42;21.50;90.00
758;DHT22;363;48.764;9.172;2023-09-30T16:10:10;21.40;90.10
758;DHT22;363;48.764;9.172;2023-09-30T16:12:35;21.30;90.30
758;DHT22;363;48.764;9.172;2023-09-30T16:15:01;22.00;90.40
758;DHT22;363;48.764;9.172;2023-09-30T16:17:32;21.20;89.80
758;DHT22;363;48.764;9.172;2023-09-30T16:19:57;21.10;90.20
758;DHT22;363;48.764;9.172;2023-09-30T16:22:23;21.30;90.40
758;DHT22;363;48.764;9.172;2023-09-30T16:24:48;21.20;90.80
758;DHT22;363;48.764;9.172;2023-09-30T16:27:14;21.40;90.60
758;DHT22;363;48.764;9.172;2023-09-30T16:29:41;21.30;90.40
758;DHT22;363;48.764;9.172;2023-09-30T16:32:07;21.20;90.50
758;DHT22;363;48.764;9.172;2023-09-30T16:34:33;21.20;91.00
758;DHT22;363;48.764;9.172;2023-09-30T16:36:58;21.10;90.90
758;DHT22;363;48.764;9.172;2023-09-30T16:39:25;20.80;91.00
758;DHT22;363;48.764;9.172;2023-09-30T16:41:51;21.40;91.10
758;DHT22;363;48.764;9.172;2023-09-30T16:44:17;21.20;90.70
758;DHT22;363;48.764;9.172;2023-09-30T16:46:43;21.10;90.70
758;DHT22;363;48.764;9.172;2023-09-30T16:49:08;20.80;91.00
758;DHT22;363;48.764;9.172;2023-09-30T16:51:34;21.10;91.30
758;DHT22;363;48.764;9.172;2023-09-30T16:54:00;20.80;91.10
758;DHT22;363;48.764;9.172;2023-09-30T16:56:26;21.00;91.50
758;DHT22;363;48.764;9.172;2023-09-30T16:58:55;20.90;91.30
758;DHT22;363;48.764;9.172;2023-09-30T17:01:22;21.20;91.70
758;DHT22;363;48.764;9.172;2023-09-30T17:03:48;20.50;91.10
758;DHT22;363;48.764;9.172;2023-09-30T17:06:14;20.40;91.70
758;DHT22;363;48.764;9.172;2023-09-30T17:08:40;20.30;91.40